Time;durP1;ratioP1;P1;durP2;ratioP2;P2;SDS_P1;SDS_P2;PMS_P1;PMS_P2;Temp;Humidity;BMP_temperature;BMP_pressure;BME280_temperature;BME280_humidity;BME280_pressure;Samples;Min_cycle;Max_cycle;Signal;HPM_P1;HPM_P2
2022/11/23 00:02:19;;;;;;;8.20;1.70;;;;;;;8.35;100.00;99604.56;5208825;28;20025;-74
2022/11/23 00:04:50;;;;;;;9.20;1.90;;;;;;;8.36;100.00;99607.06;5209288;28;20025;-75
2022/11/23 00:07:20;;;;;;;11.90;1.92;;;;;;;8.35;100.00;99613.41;5205221;28;20239;-75
2022/11/23 00:09:51;;;;;;;11.88;2.25;;;;;;;8.37;100.00;99611.38;5205493;28;20048;-75
2022/11/23 00:12:21;;;;;;;13.52;3.33;;;;;;;8.39;100.00;99609.38;5204844;28;20034;-75
2022/11/23 00:14:52;;;;;;;13.48;2.30;;;;;;;8.40;100.00;99607.53;5205522;28;20036;-75
2022/11/23 00:17:22;;;;;;;10.93;2.40;;;;;;;8.40;100.00;99616.38;5204741;28;20108;-75
2022/11/23 00:19:52;;;;;;;6.90;2.08;;;;;;;8.40;100.00;99610.22;5205390;28;20053;-75
2022/11/23 00:22:23;;;;;;;13.35;2.42;;;;;;;8.42;100.00;99606.31;5205281;28;20101;-75
2022/11/23 00:24:53;;;;;;;14.32;2.60;;;;;;;8.42;100.00;99610.84;5202089;28;20929;-75
2022/11/23 00:27:24;;;;;;;15.45;3.05;;;;;;;8.44;100.00;99607.00;5197090;28;20018;-75
2022/11/23 00:29:54;;;;;;;16.67;2.70;;;;;;;8.40;100.00;99595.00;5199067;28;20053;-75
2022/11/23 00:32:28;;;;;;;13.07;2.40;;;;;;;8.41;100.00;99602.00;5202006;28;20075;-75
2022/11/23 00:34:58;;;;;;;16.92;2.40;;;;;;;8.40;100.00;99600.34;5204928;28;20033;-75
2022/11/23 00:37:29;;;;;;;21.13;2.53;;;;;;;8.42;100.00;99616.19;5204623;28;20084;-74
2022/11/23 00:39:59;;;;;;;9.02;2.10;;;;;;;8.39;100.00;99620.06;5204896;28;20033;-75
2022/11/23 00:42:29;;;;;;;12.60;2.40;;;;;;;8.38;100.00;99613.03;5205211;28;20092;-74
2022/11/23 00:45:00;;;;;;;14.68;2.58;;;;;;;8.36;100.00;99612.41;5204839;28;20558;-75
2022/11/23 00:47:30;;;;;;;14.25;2.25;;;;;;;8.28;100.00;99617.78;5204194;28;20028;-75
2022/11/23 00:50:01;;;;;;;12.73;3.00;;;;;;;8.13;100.00;99619.59;5204952;28;20064;-75
2022/11/23 00:52:32;;;;;;;21.90;3.92;;;;;;;8.08;100.00;99614.78;5205065;28;20177;-76
2022/11/23 00:55:03;;;;;;;19.70;2.88;;;;;;;8.02;100.00;99615.53;5204639;28;20032;-75
2022/11/23 00:57:33;;;;;;;16.08;3.00;;;;;;;8.00;100.00;99615.72;5204244;28;20415;-74
2022/11/23 01:00:05;;;;;;;17.08;2.85;;;;;;;8.05;100.00;99612.50;5204394;28;20205;-74
2022/11/23 01:02:36;;;;;;;15.25;2.33;;;;;;;8.11;100.00;99621.63;5203410;28;20014;-74
2022/11/23 01:05:07;;;;;;;10.35;2.22;;;;;;;8.14;100.00;99621.28;5205035;28;20043;-75
2022/11/23 01:07:37;;;;;;;17.42;3.53;;;;;;;8.12;100.00;99620.63;5203910;28;20076;-74
2022/11/23 01:10:08;;;;;;;14.15;2.97;;;;;;;8.13;100.00;99625.75;5204461;28;20099;-74
2022/11/23 01:12:38;;;;;;;11.40;2.35;;;;;;;8.16;100.00;99632.59;5204049;28;20031;-75
2022/11/23 01:15:09;;;;;;;19.83;2.78;;;;;;;8.15;100.00;99628.28;5204577;28;20022;-75
2022/11/23 01:17:39;;;;;;;21.10;3.50;;;;;;;8.15;100.00;99641.63;5204052;28;20029;-75
2022/11/23 01:20:10;;;;;;;13.68;3.13;;;;;;;8.16;100.00;99633.44;5204566;28;20025;-75
2022/11/23 01:22:41;;;;;;;16.88;2.15;;;;;;;8.18;100.00;99638.59;5204843;28;20025;-75
2022/11/23 01:25:11;;;;;;;27.05;3.05;;;;;;;8.17;100.00;99631.59;5199283;28;20471;-74
2022/11/23 01:27:41;;;;;;;13.90;2.10;;;;;;;8.19;100.00;99635.75;5203803;28;20056;-75
2022/11/23 01:30:12;;;;;;;17.20;2.15;;;;;;;8.17;100.00;99635.09;5204266;28;20051;-76
2022/11/23 01:32:43;;;;;;;23.65;2.67;;;;;;;8.17;100.00;99634.25;5200822;28;20029;-75
2022/11/23 01:35:13;;;;;;;23.10;2.95;;;;;;;8.18;100.00;99631.44;5203817;28;20025;-75
2022/11/23 01:37:44;;;;;;;17.60;3.65;;;;;;;8.19;100.00;99640.28;5203007;28;20025;-75
2022/11/23 01:40:14;;;;;;;13.70;2.53;;;;;;;8.16;100.00;99636.09;5203550;28;20052;-74
2022/11/23 01:42:53;;;;;;;20.38;2.88;;;;;;;8.19;100.00;99645.63;5204245;28;20060;-74
2022/11/23 01:45:38;;;;;;;16.70;4.10;;;;;;;8.17;100.00;99645.78;5191674;28;20029;-74
2022/11/23 01:48:21;;;;;;;19.70;2.75;;;;;;;8.14;100.00;99648.00;5203089;28;20467;-74
2022/11/23 01:50:52;;;;;;;17.25;3.13;;;;;;;8.14;100.00;99653.34;5203992;28;20104;-74
2022/11/23 01:53:25;;;;;;;21.77;3.03;;;;;;;8.17;100.00;99647.63;5202893;28;20487;-75
2022/11/23 01:55:59;;;;;;;18.88;4.03;;;;;;;8.16;100.00;99648.63;5203303;28;20116;-75
2022/11/23 01:58:34;;;;;;;17.27;2.47;;;;;;;8.13;100.00;99646.31;5203130;28;20479;-75
2022/11/23 02:01:06;;;;;;;11.43;2.58;;;;;;;8.16;100.00;99654.81;5203010;28;20029;-74
2022/11/23 02:03:36;;;;;;;11.80;2.90;;;;;;;8.20;100.00;99647.28;5204279;28;20036;-74
2022/11/23 02:06:14;;;;;;;14.43;2.58;;;;;;;8.18;100.00;99654.63;5202993;28;20033;-74
2022/11/23 02:08:45;;;;;;;17.95;3.85;;;;;;;8.24;100.00;99638.72;5203350;28;20018;-74
2022/11/23 02:11:16;;;;;;;19.60;2.60;;;;;;;8.24;100.00;99644.06;5203298;28;20025;-75
2022/11/23 02:13:49;;;;;;;19.88;3.38;;;;;;;8.28;100.00;99649.84;5203730;28;20032;-75
2022/11/23 02:16:19;;;;;;;16.05;2.92;;;;;;;8.31;100.00;99639.66;5203818;28;20079;-75
2022/11/23 02:18:51;;;;;;;12.15;2.58;;;;;;;8.33;100.00;99642.13;5202758;28;20445;-74
2022/11/23 02:21:22;;;;;;;11.63;2.63;;;;;;;8.31;100.00;99652.19;5201874;28;20025;-75
2022/11/23 02:24:08;;;;;;;19.50;3.00;;;;;;;8.32;100.00;99648.47;5203071;28;20025;-76
2022/11/23 02:26:39;;;;;;;;;;;;;;;8.30;100.00;99654.03;5199929;28;20025;-75
2022/11/23 02:29:24;;;;;;;10.93;2.63;;;;;;;8.31;100.00;99657.53;5190490;28;19913;-75
2022/11/23 02:31:54;;;;;;;21.98;3.05;;;;;;;8.31;100.00;99653.00;5199399;28;20028;-75
2022/11/23 02:34:25;;;;;;;20.55;2.95;;;;;;;8.33;100.00;99652.81;5203213;28;20029;-75
2022/11/23 02:36:56;;;;;;;14.80;2.85;;;;;;;8.36;100.00;99649.81;5202888;28;20109;-75
2022/11/23 02:39:41;;;;;;;14.55;3.22;;;;;;;8.32;100.00;99646.63;5203146;28;20026;-75
2022/11/23 02:42:13;;;;;;;17.55;3.65;;;;;;;8.34;100.00;99653.66;5191499;28;20030;-75
2022/11/23 02:44:55;;;;;;;17.40;3.72;;;;;;;8.38;100.00;99652.31;5203082;28;20493;-75
2022/11/23 02:47:26;;;;;;;18.30;3.20;;;;;;;8.36;100.00;99646.28;5203090;28;20029;-75
2022/11/23 02:50:04;;;;;;;16.33;3.40;;;;;;;8.35;100.00;99649.97;5203286;28;20045;-75
2022/11/23 02:52:34;;;;;;;19.60;3.20;;;;;;;8.33;100.00;99655.47;5202934;28;20053;-75
2022/11/23 02:55:20;;;;;;;13.23;2.47;;;;;;;8.29;100.00;99647.03;5203482;28;20033;-76
2022/11/23 02:57:51;;;;;;;15.90;2.70;;;;;;;8.24;100.00;99648.56;5202616;28;20026;-75
2022/11/23 03:00:21;;;;;;;12.43;2.60;;;;;;;8.18;100.00;99639.44;5203321;28;20021;-74
2022/11/23 03:02:52;;;;;;;10.85;2.58;;;;;;;8.14;100.00;99640.81;5202750;28;20026;-75
2022/11/23 03:05:26;;;;;;;20.45;2.80;;;;;;;8.11;100.00;99633.16;5203157;28;20055;-74
2022/11/23 03:07:56;;;;;;;12.93;3.05;;;;;;;8.10;100.00;99641.34;5202322;28;20108;-73
2022/11/23 03:10:30;;;;;;;18.48;2.85;;;;;;;8.06;100.00;99640.88;5202971;28;20033;-74
2022/11/23 03:13:01;;;;;;;21.20;2.88;;;;;;;7.99;100.00;99651.44;5202931;28;20437;-74
2022/11/23 03:15:31;;;;;;;16.55;3.22;;;;;;;7.95;100.00;99655.47;5202620;28;20029;-75
2022/11/23 03:18:04;;;;;;;19.48;3.47;;;;;;;7.91;100.00;99664.84;5202354;28;20025;-75
2022/11/23 03:20:35;;;;;;;13.13;2.80;;;;;;;7.88;100.00;99661.69;5202808;28;20036;-74
2022/11/23 03:23:06;;;;;;;18.13;3.13;;;;;;;7.82;100.00;99665.91;5202972;28;20035;-74
2022/11/23 03:25:36;;;;;;;20.70;3.20;;;;;;;7.79;100.00;99674.28;5198994;28;20022;-73
2022/11/23 03:28:07;;;;;;;18.63;3.33;;;;;;;7.81;100.00;99672.25;5189764;28;20030;-74
2022/11/23 03:30:37;;;;;;;20.33;3.08;;;;;;;7.76;100.00;99670.13;5202358;28;20434;-73
2022/11/23 03:33:08;;;;;;;21.05;3.80;;;;;;;7.70;100.00;99670.81;5199980;28;20116;-73
2022/11/23 03:35:38;;;;;;;16.67;2.97;;;;;;;7.65;100.00;99675.88;5202863;28;20510;-74
2022/11/23 03:38:09;;;;;;;17.88;2.70;;;;;;;7.62;100.00;99670.03;5202617;28;20103;-74
2022/11/23 03:40:40;;;;;;;14.18;2.25;;;;;;;7.62;100.00;99668.19;5202223;28;20220;-74
2022/11/23 03:43:11;;;;;;;15.13;2.95;;;;;;;7.64;100.00;99668.88;5205396;28;20044;-75
2022/11/23 03:45:42;;;;;;;18.02;2.60;;;;;;;7.71;100.00;99660.97;5206837;28;20104;-74
2022/11/23 03:48:14;;;;;;;16.40;2.35;;;;;;;7.76;100.00;99670.13;5206110;28;20021;-74
2022/11/23 03:50:44;;;;;;;14.07;2.42;;;;;;;7.82;100.00;99668.56;5206533;28;20099;-74
2022/11/23 03:53:15;;;;;;;9.65;2.17;;;;;;;7.85;100.00;99664.72;5206029;28;20025;-72
2022/11/23 03:55:46;;;;;;;12.25;2.80;;;;;;;7.87;100.00;99665.38;5206580;28;20459;-74
2022/11/23 03:58:16;;;;;;;10.57;2.65;;;;;;;7.89;100.00;99672.22;5191601;28;20087;-74
2022/11/23 04:00:46;;;;;;;20.27;2.70;;;;;;;7.89;100.00;99666.88;5206210;28;20033;-74
2022/11/23 04:03:17;;;;;;;18.80;2.67;;;;;;;7.92;100.00;99665.66;5206563;28;20025;-74
2022/11/23 04:05:47;;;;;;;15.48;2.55;;;;;;;7.96;100.00;99672.31;5207204;28;20116;-74
2022/11/23 04:08:18;;;;;;;17.17;2.92;;;;;;;7.92;100.00;99671.84;5206655;28;20443;-74
2022/11/23 04:10:48;;;;;;;23.00;2.55;;;;;;;7.90;100.00;99676.53;5206984;28;20483;-73
2022/11/23 04:13:19;;;;;;;17.17;2.90;;;;;;;7.87;100.00;99673.38;5207646;28;20387;-74
2022/11/23 04:15:49;;;;;;;16.25;3.60;;;;;;;7.84;100.00;99674.59;5206525;28;20056;-74
2022/11/23 04:18:20;;;;;;;16.02;3.05;;;;;;;7.76;100.00;99672.78;5218707;28;20438;-74
2022/11/23 04:20:50;;;;;;;23.73;2.95;;;;;;;7.73;100.00;99677.63;5206168;28;20316;-74
2022/11/23 04:23:21;;;;;;;24.27;3.10;;;;;;;7.72;100.00;99675.97;5206015;28;20057;-74
2022/11/23 04:25:51;;;;;;;17.15;3.00;;;;;;;7.63;100.00;99672.56;5202083;28;20025;-74
2022/11/23 04:28:22;;;;;;;30.77;3.15;;;;;;;7.59;100.00;99675.75;5191976;28;20026;-74
2022/11/23 04:30:52;;;;;;;20.77;3.00;;;;;;;7.56;100.00;99668.91;5204219;28;20074;-73
2022/11/23 04:33:23;;;;;;;20.13;2.58;;;;;;;7.55;100.00;99663.75;5203988;28;20029;-74
2022/11/23 04:35:53;;;;;;;22.55;3.30;;;;;;;7.56;100.00;99665.41;5206144;28;20576;-74
2022/11/23 04:38:24;;;;;;;25.05;3.45;;;;;;;7.53;100.00;99662.09;5205298;28;20076;-74
2022/11/23 04:40:54;;;;;;;17.00;2.80;;;;;;;7.54;100.00;99660.25;5205244;28;20029;-74
2022/11/23 04:43:25;;;;;;;18.60;2.75;;;;;;;7.50;100.00;99659.75;5205652;28;20316;-74
2022/11/23 04:45:56;;;;;;;18.48;2.55;;;;;;;7.48;100.00;99650.25;5205239;28;20053;-74
2022/11/23 04:48:27;;;;;;;15.55;3.65;;;;;;;7.45;100.00;99656.78;5204856;28;20029;-74
2022/11/23 04:50:58;;;;;;;28.30;4.15;;;;;;;7.45;100.00;99661.31;5205651;28;20095;-74
2022/11/23 04:53:28;;;;;;;14.10;2.63;;;;;;;7.41;100.00;99659.97;5204671;28;20083;-74
2022/11/23 04:55:59;;;;;;;17.50;2.97;;;;;;;7.42;100.00;99657.13;5205628;28;20029;-74
2022/11/23 04:58:29;;;;;;;14.52;2.88;;;;;;;7.43;100.00;99657.94;5204720;28;20338;-74
2022/11/23 05:01:00;;;;;;;27.08;4.35;;;;;;;7.44;100.00;99657.81;5204974;28;20088;-74
2022/11/23 05:03:33;;;;;;;17.73;3.33;;;;;;;7.46;100.00;99655.78;5205280;28;20022;-74
2022/11/23 05:06:06;;;;;;;21.40;3.20;;;;;;;7.45;100.00;99648.78;5205243;28;20390;-74
2022/11/23 05:08:36;;;;;;;29.45;4.57;;;;;;;7.43;100.00;99649.94;5204512;28;20233;-74
2022/11/23 05:11:07;;;;;;;25.05;4.55;;;;;;;7.38;100.00;99644.31;5203817;28;20061;-74
2022/11/23 05:13:37;;;;;;;24.67;4.13;;;;;;;7.32;100.00;99648.50;5205087;28;20017;-74
2022/11/23 05:16:07;;;;;;;26.02;4.65;;;;;;;7.26;100.00;99643.88;5204822;28;20029;-74
2022/11/23 05:18:38;;;;;;;15.77;2.78;;;;;;;7.19;100.00;99642.91;5203866;28;20039;-74
2022/11/23 05:21:08;;;;;;;24.70;3.22;;;;;;;7.11;100.00;99645.63;5205374;28;20025;-74
2022/11/23 05:23:39;;;;;;;28.08;2.78;;;;;;;7.07;100.00;99645.13;5204796;28;20067;-75
2022/11/23 05:26:09;;;;;;;28.02;4.22;;;;;;;7.04;100.00;99639.31;5204777;28;20034;-74
2022/11/23 05:28:40;;;;;;;27.17;4.57;;;;;;;6.98;100.00;99640.84;5204128;28;20025;-74
2022/11/23 05:31:10;;;;;;;19.50;3.30;;;;;;;6.94;100.00;99650.19;5201279;28;20032;-74
2022/11/23 05:33:41;;;;;;;22.55;4.18;;;;;;;6.90;100.00;99643.53;5205109;28;20071;-74
2022/11/23 05:36:12;;;;;;;28.73;3.97;;;;;;;6.84;100.00;99642.38;5204742;28;20037;-74
2022/11/23 05:38:43;;;;;;;21.20;2.97;;;;;;;6.83;100.00;99645.19;5203888;28;20425;-75
2022/11/23 05:41:13;;;;;;;17.00;2.72;;;;;;;6.81;100.00;99645.38;5204012;28;20025;-75
2022/11/23 05:43:44;;;;;;;22.55;2.97;;;;;;;6.74;100.00;99645.25;5204419;28;20447;-75
2022/11/23 05:46:15;;;;;;;28.85;2.72;;;;;;;6.75;100.00;99644.22;5204047;28;20106;-75
2022/11/23 05:48:45;;;;;;;17.80;2.83;;;;;;;6.74;100.00;99647.06;5202545;28;20259;-75
2022/11/23 05:51:15;;;;;;;17.55;2.75;;;;;;;6.74;100.00;99650.56;5204374;28;20028;-74
2022/11/23 05:53:47;;;;;;;28.25;3.30;;;;;;;6.72;100.00;99649.06;5203831;28;20394;-75
2022/11/23 05:56:17;;;;;;;24.38;3.25;;;;;;;6.66;100.00;99644.41;5190611;28;20045;-74
2022/11/23 05:58:48;;;;;;;20.88;3.10;;;;;;;6.62;100.00;99648.41;5203414;28;20052;-74
2022/11/23 06:01:18;;;;;;;14.18;2.78;;;;;;;6.56;100.00;99657.09;5203666;28;20071;-75
2022/11/23 06:03:49;;;;;;;17.55;3.05;;;;;;;6.51;100.00;99654.13;5203986;28;20033;-74
2022/11/23 06:06:20;;;;;;;21.38;2.95;;;;;;;6.48;100.00;99647.31;5196604;28;20072;-74
2022/11/23 06:08:50;;;;;;;18.08;3.65;;;;;;;6.47;100.00;99649.09;5196069;28;20037;-73
2022/11/23 06:11:21;;;;;;;17.17;3.05;;;;;;;6.44;100.00;99649.47;5203553;28;20028;-74
2022/11/23 06:13:51;;;;;;;23.27;2.35;;;;;;;6.34;100.00;99648.81;5203534;28;20121;-74
2022/11/23 06:16:21;;;;;;;21.20;3.20;;;;;;;6.25;100.00;99649.00;5203713;28;20099;-73
2022/11/23 06:18:52;;;;;;;23.83;3.75;;;;;;;6.18;100.00;99656.81;5202566;28;20064;-74
2022/11/23 06:21:22;;;;;;;18.10;3.00;;;;;;;6.14;100.00;99656.31;5203589;28;20030;-73
2022/11/23 06:23:53;;;;;;;15.52;3.08;;;;;;;6.09;100.00;99658.66;5203255;28;20086;-74
2022/11/23 06:26:24;;;;;;;28.10;3.20;;;;;;;6.01;100.00;99655.13;5199094;28;20390;-74
2022/11/23 06:28:54;;;;;;;20.55;2.88;;;;;;;6.01;100.00;99653.31;5189331;28;20036;-73
2022/11/23 06:31:25;;;;;;;27.45;4.28;;;;;;;6.00;100.00;99651.66;5202777;28;20387;-73
2022/11/23 06:33:55;;;;;;;22.55;3.92;;;;;;;5.93;100.00;99648.00;5203213;28;20552;-73
2022/11/23 06:36:26;;;;;;;31.17;3.55;;;;;;;5.93;100.00;99662.13;5203286;28;20083;-73
2022/11/23 06:38:56;;;;;;;29.20;5.55;;;;;;;5.95;100.00;99662.78;5202626;28;20028;-74
2022/11/23 06:41:27;;;;;;;14.38;3.00;;;;;;;5.88;100.00;99659.09;5203484;28;20379;-74
2022/11/23 06:43:57;;;;;;;22.15;3.55;;;;;;;5.87;100.00;99661.91;5202753;28;20486;-74
2022/11/23 06:46:27;;;;;;;12.52;2.75;;;;;;;5.86;100.00;99661.06;5202893;28;20068;-71
2022/11/23 06:48:58;;;;;;;19.20;3.03;;;;;;;5.81;100.00;99659.91;5202748;28;20026;-71
2022/11/23 06:51:28;;;;;;;31.88;3.75;;;;;;;5.78;100.00;99673.56;5202962;28;20013;-73
2022/11/23 06:53:59;;;;;;;23.08;3.40;;;;;;;5.83;100.00;99671.25;5203192;28;20029;-73
2022/11/23 06:56:32;;;;;;;17.90;2.40;;;;;;;5.87;100.00;99669.91;5202561;28;20018;-73
2022/11/23 06:59:03;;;;;;;27.25;3.28;;;;;;;5.87;100.00;99670.75;5202509;28;20029;-73
2022/11/23 07:01:33;;;;;;;17.17;3.15;;;;;;;5.84;100.00;99675.56;5202953;28;20063;-74
2022/11/23 07:04:04;;;;;;;19.75;2.92;;;;;;;6.01;100.00;99679.09;5202979;28;20021;-73
2022/11/23 07:06:39;;;;;;;16.30;3.33;;;;;;;5.99;100.00;99681.94;5202906;28;20108;-74
2022/11/23 07:09:09;;;;;;;19.05;2.92;;;;;;;5.94;100.00;99678.94;5202248;28;20029;-73
2022/11/23 07:11:40;;;;;;;18.45;2.90;;;;;;;5.86;100.00;99686.88;5202934;28;20029;-73
2022/11/23 07:14:11;;;;;;;24.17;3.22;;;;;;;5.82;100.00;99688.19;5202671;28;20021;-73
2022/11/23 07:16:41;;;;;;;16.40;2.80;;;;;;;5.80;100.00;99688.34;5204837;28;20032;-73
2022/11/23 07:19:12;;;;;;;13.18;2.95;;;;;;;5.85;100.00;99694.03;5206235;28;20489;-73
2022/11/23 07:21:44;;;;;;;19.42;4.50;;;;;;;5.85;100.00;99694.03;5206927;28;20018;-74
2022/11/23 07:24:14;;;;;;;23.80;2.70;;;;;;;5.85;100.00;99710.00;5206863;28;20108;-73
2022/11/23 07:26:44;;;;;;;19.08;2.90;;;;;;;5.92;100.00;99708.41;5206444;28;20124;-74
2022/11/23 07:29:15;;;;;;;18.38;2.97;;;;;;;5.92;100.00;99713.72;5206382;28;20217;-74
2022/11/23 07:31:45;;;;;;;22.92;3.10;;;;;;;5.92;100.00;99719.03;5202051;28;20418;-73
2022/11/23 07:34:16;;;;;;;21.90;2.45;;;;;;;5.95;100.00;99715.19;5206875;28;20021;-74
2022/11/23 07:36:46;;;;;;;19.33;2.95;;;;;;;6.00;100.00;99722.69;5206225;28;20036;-74
2022/11/23 07:39:17;;;;;;;21.10;3.50;;;;;;;6.08;100.00;99725.38;5206286;28;20550;-74
2022/11/23 07:41:48;;;;;;;19.27;3.47;;;;;;;6.09;100.00;99727.88;5206618;28;20017;-74
2022/11/23 07:44:18;;;;;;;23.75;3.97;;;;;;;6.13;100.00;99739.03;5206184;28;20041;-74
2022/11/23 07:46:52;;;;;;;22.52;2.50;;;;;;;6.11;100.00;99739.19;5206002;28;20025;-74
2022/11/23 07:49:22;;;;;;;25.23;3.30;;;;;;;6.19;100.00;99738.38;5205940;28;20441;-74
2022/11/23 07:51:54;;;;;;;16.70;3.55;;;;;;;6.29;100.00;99741.72;5206403;28;20018;-74
2022/11/23 07:54:25;;;;;;;16.33;2.83;;;;;;;6.34;100.00;99749.22;5206281;28;20380;-74
2022/11/23 07:56:55;;;;;;;22.38;3.90;;;;;;;6.34;100.00;99750.03;5205570;28;20025;-74
2022/11/23 07:59:26;;;;;;;14.18;3.08;;;;;;;6.43;100.00;99750.88;5192682;28;20033;-74
2022/11/23 08:01:56;;;;;;;26.65;4.60;;;;;;;6.52;100.00;99755.19;5206139;28;20047;-74
2022/11/23 08:04:28;;;;;;;23.10;2.95;;;;;;;6.70;100.00;99758.53;5206043;28;20056;-73
2022/11/23 08:06:59;;;;;;;16.90;2.97;;;;;;;6.85;100.00;99755.19;5205689;28;20021;-74
2022/11/23 08:09:30;;;;;;;24.20;4.13;;;;;;;6.96;100.00;99752.16;5204191;28;20029;-74
2022/11/23 08:12:00;;;;;;;20.67;3.33;;;;;;;7.01;100.00;99755.16;5206144;28;20029;-74
2022/11/23 08:14:31;;;;;;;21.15;3.35;;;;;;;7.12;100.00;99760.13;5205862;28;20021;-74
2022/11/23 08:17:01;;;;;;;15.80;3.85;;;;;;;7.24;100.00;99757.94;5205450;28;20033;-74
2022/11/23 08:19:32;;;;;;;21.40;4.05;;;;;;;7.22;100.00;99760.75;5205585;28;20092;-74
2022/11/23 08:22:02;;;;;;;22.15;3.63;;;;;;;7.32;100.00;99752.56;5205460;28;20484;-74
2022/11/23 08:24:32;;;;;;;16.27;2.80;;;;;;;7.23;100.00;99745.63;5205971;28;20506;-74
2022/11/23 08:27:03;;;;;;;15.00;3.20;;;;;;;7.33;100.00;99758.72;5205149;28;20032;-74
2022/11/23 08:29:33;;;;;;;21.52;3.88;;;;;;;7.46;100.00;99753.69;5205487;28;20475;-74
2022/11/23 08:32:04;;;;;;;15.40;3.00;;;;;;;7.55;100.00;99757.16;5205659;28;20497;-74
2022/11/23 08:34:34;;;;;;;24.45;3.10;;;;;;;7.71;100.00;99751.75;5205452;28;20394;-74
2022/11/23 08:37:05;;;;;;;20.88;3.60;;;;;;;7.43;100.00;99760.22;5205095;28;20025;-74
2022/11/23 08:39:35;;;;;;;11.55;3.08;;;;;;;7.24;100.00;99760.59;5205773;28;20033;-74
2022/11/23 08:42:06;;;;;;;23.77;4.15;;;;;;;7.23;100.00;99767.78;5205303;28;20022;-74
2022/11/23 08:44:36;;;;;;;18.10;4.10;;;;;;;7.40;100.00;99763.22;5205036;28;20033;-74
2022/11/23 08:47:06;;;;;;;18.30;3.58;;;;;;;7.94;100.00;99759.81;5205152;28;20029;-74
2022/11/23 08:49:37;;;;;;;21.77;3.60;;;;;;;8.07;100.00;99764.56;5205508;28;20219;-74
2022/11/23 08:52:07;;;;;;;17.30;3.65;;;;;;;8.05;100.00;99746.88;5205629;28;20021;-74
2022/11/23 08:54:38;;;;;;;14.65;2.42;;;;;;;7.89;100.00;99738.16;5206310;28;20036;-74
2022/11/23 08:57:08;;;;;;;12.90;3.15;;;;;;;7.74;100.00;99727.38;5205502;28;20025;-74
2022/11/23 08:59:38;;;;;;;15.65;3.50;;;;;;;7.64;100.00;99716.91;5205552;28;20479;-75
2022/11/23 09:02:12;;;;;;;12.32;2.90;;;;;;;7.72;100.00;99708.84;5205122;28;20021;-74
2022/11/23 09:04:42;;;;;;;13.23;2.90;;;;;;;7.39;100.00;99702.84;5205046;28;20367;-74
2022/11/23 09:07:13;;;;;;;13.73;2.70;;;;;;;7.48;100.00;99692.94;5204670;28;20036;-74
2022/11/23 09:09:43;;;;;;;11.93;2.92;;;;;;;7.56;100.00;99698.25;5204250;28;20027;-74
2022/11/23 09:12:14;;;;;;;15.18;3.03;;;;;;;7.82;100.00;99697.94;5204853;28;20129;-74
2022/11/23 09:14:44;;;;;;;12.30;2.63;;;;;;;7.91;100.00;99683.53;5205465;28;20025;-74
2022/11/23 09:17:15;;;;;;;15.30;2.78;;;;;;;7.95;100.00;99687.53;5204308;28;20475;-74
2022/11/23 09:19:45;;;;;;;15.73;2.55;;;;;;;8.09;100.00;99690.44;5205220;28;20021;-74
2022/11/23 09:22:15;;;;;;;10.07;2.20;;;;;;;7.91;100.00;99677.38;5204122;28;20041;-74
2022/11/23 09:24:46;;;;;;;12.10;2.63;;;;;;;7.91;100.00;99686.22;5204543;28;20021;-74
2022/11/23 09:27:17;;;;;;;11.02;3.00;;;;;;;7.74;100.00;99679.31;5198651;28;20480;-72
2022/11/23 09:29:47;;;;;;;15.73;3.00;;;;;;;7.66;100.00;99684.69;5197094;28;20071;-72
2022/11/23 09:32:18;;;;;;;9.95;2.53;;;;;;;7.69;100.00;99681.69;5199949;28;20025;-72
2022/11/23 09:34:48;;;;;;;21.40;3.25;;;;;;;7.79;100.00;99684.97;5204058;28;20124;-72
2022/11/23 09:37:18;;;;;;;14.07;3.20;;;;;;;7.74;100.00;99690.00;5203816;28;20495;-72
2022/11/23 09:39:49;;;;;;;17.08;2.70;;;;;;;7.78;100.00;99691.28;5204201;28;20025;-72
2022/11/23 09:43:10;;;;;;;9.43;2.30;;;;;;;8.01;100.00;99685.97;5204462;28;20485;-72
2022/11/23 09:45:51;;;;;;;18.30;2.88;;;;;;;8.00;100.00;99690.50;5191783;28;20063;-73
2022/11/23 09:48:42;;;;;;;12.10;2.40;;;;;;;8.20;100.00;99696.19;5203596;28;20395;-72
2022/11/23 09:51:18;;;;;;;13.15;2.05;;;;;;;8.11;100.00;99705.28;5203617;28;20045;-72
2022/11/23 09:53:52;;;;;;;13.80;2.55;;;;;;;8.08;100.00;99691.44;5204250;28;20080;-72
2022/11/23 09:56:27;;;;;;;9.70;1.73;;;;;;;7.91;100.00;99694.22;5203834;28;20025;-72
2022/11/23 09:59:01;;;;;;;16.55;3.10;;;;;;;8.03;100.00;99698.16;5202563;28;20029;-72
2022/11/23 10:01:31;;;;;;;14.18;2.13;;;;;;;8.07;100.00;99687.09;5203848;28;20095;-72
2022/11/23 10:04:03;;;;;;;9.25;2.03;;;;;;;8.08;100.00;99683.41;5203455;28;20057;-72
2022/11/23 10:06:39;;;;;;;10.93;1.83;;;;;;;8.05;100.00;99673.94;5204056;28;20546;-73
2022/11/23 10:09:31;;;;;;;12.63;1.83;;;;;;;8.09;100.00;99671.75;5203341;28;20034;-72
2022/11/23 10:12:25;;;;;;;11.07;2.05;;;;;;;8.12;100.00;99660.69;5203675;28;20112;-72
2022/11/23 10:15:11;;;;;;;16.30;2.13;;;;;;;8.12;100.00;99671.38;5203879;28;20517;-72
2022/11/23 10:17:58;;;;;;;14.90;2.15;;;;;;;8.19;100.00;99657.13;5203069;28;20025;-72
2022/11/23 10:20:59;;;;;;;11.60;2.17;;;;;;;8.11;100.00;99661.69;5203704;28;20021;-72
2022/11/23 10:23:33;;;;;;;14.32;2.20;;;;;;;8.21;100.00;99648.91;5203433;28;20025;-72
2022/11/23 10:26:03;;;;;;;8.00;2.10;;;;;;;8.28;100.00;99649.84;5203380;28;20084;-72
2022/11/23 10:28:35;;;;;;;16.15;2.42;;;;;;;8.35;100.00;99647.31;5189855;28;20045;-72
2022/11/23 10:31:20;;;;;;;11.70;2.00;;;;;;;8.43;100.00;99636.56;5200274;28;20026;-72
2022/11/23 10:34:13;;;;;;;9.77;2.23;;;;;;;8.48;100.00;99628.81;5203625;28;20026;-72
2022/11/23 10:36:43;;;;;;;6.85;1.92;;;;;;;8.55;100.00;99617.22;5203295;28;20475;-72
2022/11/23 10:39:24;;;;;;;9.60;1.80;;;;;;;8.62;100.00;99614.66;5202531;28;20221;-72
2022/11/23 10:42:02;;;;;;;8.20;1.83;;;;;;;8.87;100.00;99607.19;5203365;28;20025;-72
2022/11/23 10:44:36;;;;;;;8.50;2.30;;;;;;;8.94;100.00;99597.41;5203419;28;20030;-74
2022/11/23 10:47:07;;;;;;;6.25;1.67;;;;;;;9.21;100.00;99592.38;5202729;28;20056;-73
2022/11/23 10:49:37;;;;;;;6.63;1.90;;;;;;;9.08;100.00;99590.38;5202837;28;20057;-72
2022/11/23 10:52:30;;;;;;;7.88;2.38;;;;;;;9.04;100.00;99583.75;5202770;28;20190;-73
2022/11/23 10:55:05;;;;;;;8.45;1.60;;;;;;;9.10;100.00;99574.97;5203441;28;20033;-73
2022/11/23 10:57:44;;;;;;;8.52;1.83;;;;;;;9.10;100.00;99568.78;5203014;28;20022;-73
2022/11/23 11:00:18;;;;;;;10.07;2.20;;;;;;;9.05;100.00;99566.69;5202798;28;20119;-73
2022/11/23 11:02:52;;;;;;;9.60;1.85;;;;;;;9.05;100.00;99569.34;5203345;28;20013;-73
2022/11/23 11:05:33;;;;;;;7.15;1.73;;;;;;;9.11;100.00;99557.06;5203238;28;20025;-73
2022/11/23 11:08:21;;;;;;;10.52;1.70;;;;;;;8.99;100.00;99554.88;5202614;28;20036;-73
2022/11/23 11:11:05;;;;;;;6.45;1.75;;;;;;;9.04;100.00;99546.31;5201720;28;20083;-73
2022/11/23 11:13:42;;;;;;;15.40;2.00;;;;;;;9.04;100.00;99541.78;5203153;28;20022;-73
2022/11/23 11:16:29;;;;;;;8.63;2.05;;;;;;;8.99;100.00;99541.50;5202933;28;20029;-73
2022/11/23 11:19:30;;;;;;;10.38;1.83;;;;;;;8.98;100.00;99539.81;5202183;28;20032;-73
2022/11/23 11:22:23;;;;;;;13.77;2.53;;;;;;;8.95;100.00;99537.53;5202736;28;20029;-73
2022/11/23 11:24:54;;;;;;;7.53;1.35;;;;;;;8.87;100.00;99532.28;5202635;28;20518;-73
2022/11/23 11:27:27;;;;;;;7.93;1.58;;;;;;;8.96;100.00;99527.69;5202079;28;20057;-72
2022/11/23 11:30:23;;;;;;;13.77;1.55;;;;;;;9.06;100.00;99525.53;5202804;28;20473;-73
2022/11/23 11:33:09;;;;;;;13.32;1.38;;;;;;;9.18;100.00;99528.53;5196791;28;20045;-73
2022/11/23 11:35:44;;;;;;;7.65;1.50;;;;;;;9.16;100.00;99520.69;5202689;28;20045;-75
2022/11/23 11:38:30;;;;;;;8.88;1.60;;;;;;;9.22;100.00;99511.91;5202696;28;20010;-73
2022/11/23 11:41:07;;;;;;;7.43;1.80;;;;;;;9.24;100.00;99512.56;5203342;28;20425;-75
2022/11/23 11:43:43;;;;;;;7.80;1.60;;;;;;;9.36;100.00;99504.84;5202012;28;20029;-72
2022/11/23 11:46:19;;;;;;;6.63;1.45;;;;;;;9.38;100.00;99502.78;5202264;28;20360;-73
2022/11/23 11:49:19;;;;;;;7.03;1.55;;;;;;;9.44;100.00;99493.16;5202554;28;20032;-73
2022/11/23 11:52:01;;;;;;;11.63;1.83;;;;;;;9.48;100.00;99470.34;5188509;28;20072;-73
2022/11/23 11:55:00;;;;;;;9.30;1.85;;;;;;;9.47;100.00;99474.06;5202466;28;20029;-73